Terminal Aerodrome Forecast
Issued by NWS

Home | Current Version | Previous Version | Text Only | Print | Product List | Glossary On
Versions: 1 2 3 4 5 6 7 8 9 10 11 12 13 14
000
FTUS43 KFGF 012300
TAFDVL
TAF
KDVL 012322Z 0200/0224 30022G29KT P6SM SCT150
     FM020300 26015KT P6SM SCT200
     FM021400 28025G35KT P6SM BKN100
      AMD LTD TO CLD VIS AND WIND=

USA.gov is the U.S. government's official web portal to all federal, state and local government web resources and services.